Time;durP1;ratioP1;P1;durP2;ratioP2;P2;SDS_P1;SDS_P2;PMS_P1;PMS_P2;Temp;Humidity;BMP_temperature;BMP_pressure;BME280_temperature;BME280_humidity;BME280_pressure;Samples;Min_cycle;Max_cycle;Signal;HPM_P1;HPM_P2
2021/09/19 01:23:37;;;;;;;4.60;3.53;;;14.80;99.90;;;;;;4963182;28;20089;-89
2021/09/19 01:26:04;;;;;;;5.85;4.10;;;14.70;99.90;;;;;;4938227;29;20511;-88
2021/09/19 01:28:32;;;;;;;4.45;4.05;;;14.70;99.90;;;;;;4939550;29;20039;-90
2021/09/19 01:30:58;;;;;;;5.15;3.85;;;14.70;99.90;;;;;;4939659;29;20043;-89
2021/09/19 01:33:23;;;;;;;4.50;3.47;;;14.60;99.90;;;;;;4939241;29;20043;-91
2021/09/19 01:35:49;;;;;;;6.70;4.80;;;14.60;99.90;;;;;;4955484;28;20036;-90
2021/09/19 01:38:15;;;;;;;6.63;4.57;;;14.60;99.90;;;;;;4938936;29;20035;-90
2021/09/19 01:40:41;;;;;;;7.43;4.43;;;14.50;99.90;;;;;;4938554;29;20122;-90
2021/09/19 01:43:06;;;;;;;7.65;4.07;;;14.50;99.90;;;;;;4955933;28;20048;-90
2021/09/19 01:45:32;;;;;;;5.70;3.90;;;14.50;99.90;;;;;;4938307;29;20035;-90
2021/09/19 01:47:58;;;;;;;5.90;4.28;;;14.40;99.90;;;;;;4955230;28;20030;-90
2021/09/19 01:50:26;;;;;;;7.13;4.10;;;14.40;99.90;;;;;;4938237;29;20073;-91
2021/09/19 01:52:53;;;;;;;7.82;4.82;;;14.30;99.90;;;;;;4955270;28;20106;-90
2021/09/19 01:55:19;;;;;;;6.85;4.93;;;14.30;99.90;;;;;;4938576;29;20059;-90
2021/09/19 01:57:45;;;;;;;7.85;5.93;;;14.30;99.90;;;;;;4955505;28;20031;-90
2021/09/19 02:00:12;;;;;;;9.38;6.30;;;14.30;99.90;;;;;;4939077;29;20555;-90
2021/09/19 02:02:38;;;;;;;17.80;6.53;;;14.30;99.90;;;;;;4956235;28;20561;-91
2021/09/19 02:05:06;;;;;;;25.10;8.38;;;14.30;99.90;;;;;;4947467;29;20027;-90
2021/09/19 02:07:37;;;;;;;96.75;12.57;;;14.30;99.90;;;;;;4951352;29;20099;-91
2021/09/19 02:10:09;;;;;;;101.53;12.57;;;14.30;99.90;;;;;;4951441;29;20035;-90
2021/09/19 02:12:36;;;;;;;26.42;6.93;;;14.30;99.90;;;;;;4940508;29;20035;-90
2021/09/19 02:15:03;;;;;;;89.47;10.68;;;14.30;99.90;;;;;;4945136;29;20039;-90
2021/09/19 02:17:29;;;;;;;39.67;7.65;;;14.30;99.90;;;;;;4951242;29;20047;-90
2021/09/19 02:19:55;;;;;;;53.25;8.90;;;14.30;99.90;;;;;;4959157;28;20031;-91
2021/09/19 02:22:21;;;;;;;25.38;7.13;;;14.30;99.90;;;;;;4957044;28;20149;-90
2021/09/19 02:24:47;;;;;;;42.78;8.02;;;14.30;99.90;;;;;;4938477;29;20040;-90
2021/09/19 02:27:12;;;;;;;10.63;6.25;;;14.40;99.90;;;;;;4938345;29;20038;-91
2021/09/19 02:29:38;;;;;;;13.30;6.40;;;14.30;99.90;;;;;;4938518;29;20066;-91
2021/09/19 02:32:05;;;;;;;8.52;6.18;;;14.40;99.90;;;;;;4955389;28;20502;-90
2021/09/19 02:34:31;;;;;;;9.00;6.75;;;14.40;99.90;;;;;;4938315;29;20405;-90
2021/09/19 02:36:57;;;;;;;14.90;9.93;;;14.40;99.90;;;;;;4955695;28;20102;-90
2021/09/19 02:39:22;;;;;;;14.55;10.85;;;14.40;99.90;;;;;;4938527;29;20046;-90
2021/09/19 02:41:48;;;;;;;12.20;9.68;;;14.50;99.90;;;;;;4938012;29;20530;-90
2021/09/19 02:44:14;;;;;;;11.20;9.45;;;14.50;99.90;;;;;;4938079;29;20047;-89
2021/09/19 02:46:39;;;;;;;8.82;7.75;;;14.50;99.90;;;;;;4938250;29;20054;-90
2021/09/19 02:49:05;;;;;;;8.98;7.70;;;14.50;99.90;;;;;;4938410;29;20122;-91
2021/09/19 02:51:31;;;;;;;8.52;6.85;;;14.50;99.90;;;;;;4938465;29;20122;-91
2021/09/19 02:53:56;;;;;;;7.60;6.00;;;14.50;99.90;;;;;;4941522;29;20035;-90
2021/09/19 02:56:22;;;;;;;7.47;5.43;;;14.50;99.90;;;;;;4965000;28;20032;-90
2021/09/19 02:58:48;;;;;;;6.82;4.68;;;14.50;99.90;;;;;;4948835;29;20039;-91
2021/09/19 03:01:13;;;;;;;4.95;4.45;;;14.50;99.90;;;;;;4960085;28;20054;-90
2021/09/19 03:03:39;;;;;;;6.22;3.97;;;14.40;99.90;;;;;;4938280;29;20410;-90
2021/09/19 03:06:05;;;;;;;4.95;4.40;;;14.40;99.90;;;;;;4955369;28;20540;-90
2021/09/19 03:08:31;;;;;;;3.95;3.22;;;14.30;99.90;;;;;;4938316;29;20053;-90
2021/09/19 03:10:56;;;;;;;4.28;2.78;;;14.30;99.90;;;;;;4940917;29;20062;-90
2021/09/19 03:13:22;;;;;;;6.22;3.65;;;14.30;99.90;;;;;;4941935;29;20073;-90
2021/09/19 03:15:48;;;;;;;4.13;3.25;;;14.20;99.90;;;;;;4942173;29;20045;-90
2021/09/19 03:18:13;;;;;;;3.50;3.20;;;14.20;99.90;;;;;;4941957;29;20052;-90
2021/09/19 03:20:39;;;;;;;3.75;2.47;;;14.20;99.90;;;;;;4942073;29;20035;-90
2021/09/19 03:23:05;;;;;;;3.58;2.90;;;14.20;99.90;;;;;;4941626;29;20051;-89
2021/09/19 03:25:30;;;;;;;5.05;3.53;;;14.10;99.90;;;;;;4942004;29;20043;-90
2021/09/19 03:27:58;;;;;;;4.07;3.28;;;14.20;99.90;;;;;;4942136;29;20059;-90
2021/09/19 03:30:24;;;;;;;4.38;3.20;;;14.20;99.90;;;;;;4941692;29;20036;-90
2021/09/19 03:32:50;;;;;;;4.85;3.28;;;14.20;99.90;;;;;;4958800;28;20475;-90
2021/09/19 03:35:16;;;;;;;5.50;3.60;;;14.20;99.90;;;;;;4942186;29;20130;-90
2021/09/19 03:37:42;;;;;;;4.47;3.25;;;14.20;99.90;;;;;;4958740;28;20102;-90
2021/09/19 03:40:10;;;;;;;3.15;2.65;;;14.20;99.90;;;;;;4941909;29;20067;-90
2021/09/19 03:42:37;;;;;;;8.27;3.40;;;14.30;99.90;;;;;;4941327;29;20126;-90
2021/09/19 03:45:03;;;;;;;2.95;2.65;;;14.30;99.90;;;;;;4941798;29;20085;-89
2021/09/19 03:47:29;;;;;;;3.03;2.60;;;14.30;99.90;;;;;;4941683;29;20487;-89
2021/09/19 03:49:55;;;;;;;4.00;2.50;;;14.30;99.90;;;;;;4941252;29;20042;-89
2021/09/19 03:52:21;;;;;;;2.67;2.10;;;14.20;99.90;;;;;;4941501;29;20510;-90
2021/09/19 03:54:46;;;;;;;3.20;2.60;;;14.20;99.90;;;;;;4941885;29;20039;-90
2021/09/19 03:57:12;;;;;;;2.47;2.10;;;14.20;99.90;;;;;;4941235;29;20123;-90
2021/09/19 03:59:38;;;;;;;2.97;2.53;;;14.20;99.90;;;;;;4941107;29;20491;-90
2021/09/19 04:02:03;;;;;;;2.67;2.47;;;14.20;99.90;;;;;;4941520;29;20071;-90
2021/09/19 04:04:30;;;;;;;2.40;2.13;;;14.10;99.90;;;;;;4943395;29;20134;-90
2021/09/19 04:06:56;;;;;;;4.63;2.80;;;14.10;99.90;;;;;;4943258;29;20039;-90
2021/09/19 04:09:23;;;;;;;3.53;2.70;;;14.10;99.90;;;;;;4942662;29;20031;-90
2021/09/19 04:11:48;;;;;;;3.17;2.85;;;14.20;99.90;;;;;;4959104;28;20039;-90
2021/09/19 04:14:14;;;;;;;2.72;2.25;;;14.20;99.90;;;;;;4958334;28;20039;-89
2021/09/19 04:16:40;;;;;;;2.95;1.98;;;14.30;99.90;;;;;;4958803;28;20066;-90
2021/09/19 04:19:08;;;;;;;2.78;2.05;;;14.40;99.90;;;;;;4941141;29;20074;-90
2021/09/19 04:21:35;;;;;;;3.13;2.40;;;14.50;99.90;;;;;;4957279;28;20054;-90
2021/09/19 04:24:00;;;;;;;4.53;2.88;;;14.50;99.90;;;;;;4941012;29;20078;-90
2021/09/19 04:26:26;;;;;;;3.55;2.58;;;14.60;99.90;;;;;;4941064;29;20047;-90
2021/09/19 04:28:52;;;;;;;7.38;2.50;;;14.70;99.90;;;;;;4940988;29;20035;-90
2021/09/19 04:31:18;;;;;;;3.15;2.85;;;14.70;99.90;;;;;;4958285;28;20483;-90
2021/09/19 04:33:44;;;;;;;3.05;2.38;;;14.70;99.90;;;;;;4941051;29;20039;-90
2021/09/19 04:36:10;;;;;;;3.05;2.70;;;14.60;99.90;;;;;;4941108;29;20118;-90
2021/09/19 04:38:35;;;;;;;2.47;2.25;;;14.60;99.90;;;;;;4940951;29;20399;-90
2021/09/19 04:41:01;;;;;;;5.22;2.78;;;14.60;99.90;;;;;;4958275;28;20186;-90
2021/09/19 04:43:27;;;;;;;2.33;1.90;;;14.60;99.90;;;;;;4942376;29;20039;-90
2021/09/19 04:45:52;;;;;;;2.75;2.50;;;14.70;99.90;;;;;;4940909;29;20039;-90
2021/09/19 04:48:19;;;;;;;2.53;2.22;;;14.70;99.90;;;;;;4940660;29;20035;-90
2021/09/19 04:50:45;;;;;;;3.05;2.28;;;14.80;99.90;;;;;;4940518;29;20039;-90
2021/09/19 04:53:11;;;;;;;2.63;2.15;;;14.90;99.90;;;;;;4940734;29;20035;-90
2021/09/19 04:55:36;;;;;;;2.70;2.50;;;15.00;99.90;;;;;;4940213;29;20439;-90
2021/09/19 04:58:02;;;;;;;3.20;2.47;;;15.10;99.90;;;;;;4940490;29;20043;-90
2021/09/19 05:00:28;;;;;;;2.45;2.25;;;15.20;99.90;;;;;;4940304;29;20067;-90
2021/09/19 05:02:54;;;;;;;2.90;2.63;;;15.30;99.90;;;;;;4957392;28;20485;-89
2021/09/19 05:05:19;;;;;;;2.75;2.17;;;15.30;99.90;;;;;;4940681;29;20050;-90
2021/09/19 05:07:45;;;;;;;2.50;2.30;;;15.40;99.90;;;;;;4941072;29;20391;-90
2021/09/19 05:10:11;;;;;;;2.40;2.20;;;15.40;99.90;;;;;;4957145;28;20039;-90
2021/09/19 05:12:37;;;;;;;2.50;2.30;;;15.50;99.90;;;;;;4940483;29;20063;-90
2021/09/19 05:15:03;;;;;;;2.95;2.65;;;15.70;99.90;;;;;;4940459;29;20479;-90
2021/09/19 05:17:29;;;;;;;2.58;2.38;;;15.70;99.90;;;;;;4940184;29;20089;-90
2021/09/19 05:19:55;;;;;;;2.65;2.33;;;15.80;99.90;;;;;;4939975;29;20035;-90
2021/09/19 05:22:20;;;;;;;3.08;2.30;;;15.90;99.90;;;;;;4956619;28;20048;-90
2021/09/19 05:24:46;;;;;;;2.33;2.13;;;16.10;99.90;;;;;;4940050;29;20175;-90
2021/09/19 05:27:12;;;;;;;2.67;2.40;;;16.20;99.90;;;;;;4939406;29;20376;-90
2021/09/19 05:29:37;;;;;;;2.85;2.60;;;16.30;99.90;;;;;;4956794;28;20467;-91
2021/09/19 05:32:03;;;;;;;2.88;2.55;;;16.50;99.90;;;;;;4940106;28;20057;-90
2021/09/19 05:34:31;;;;;;;4.32;3.25;;;16.60;99.90;;;;;;4940049;29;20035;-90
2021/09/19 05:36:57;;;;;;;3.72;3.15;;;16.70;99.90;;;;;;4940088;29;20046;-90
2021/09/19 05:39:23;;;;;;;3.50;3.20;;;16.80;99.80;;;;;;4939564;29;20039;-91
2021/09/19 05:41:50;;;;;;;4.13;3.40;;;16.90;99.30;;;;;;4939156;29;20086;-90
2021/09/19 05:44:16;;;;;;;3.03;2.78;;;17.10;99.30;;;;;;4939608;29;20393;-91
2021/09/19 05:46:42;;;;;;;5.65;3.20;;;17.20;99.10;;;;;;4939625;29;20134;-90
2021/09/19 05:49:07;;;;;;;3.55;3.10;;;17.50;98.80;;;;;;4939329;29;20134;-90
2021/09/19 05:51:33;;;;;;;3.60;3.10;;;17.70;98.10;;;;;;4938322;29;20479;-90
2021/09/19 05:53:59;;;;;;;3.22;2.90;;;17.80;97.50;;;;;;4956749;29;20035;-91
2021/09/19 05:56:25;;;;;;;3.60;3.30;;;17.90;97.10;;;;;;4956375;28;20086;-91
2021/09/19 05:58:51;;;;;;;3.58;3.28;;;18.10;96.90;;;;;;4956542;29;20077;-91
2021/09/19 06:01:17;;;;;;;3.45;3.15;;;18.10;96.50;;;;;;4939100;29;20055;-91
2021/09/19 06:03:42;;;;;;;3.58;3.28;;;18.10;96.30;;;;;;4956864;29;20039;-91
2021/09/19 06:06:08;;;;;;;4.72;4.22;;;18.20;96.30;;;;;;4939374;29;20043;-91
2021/09/19 06:08:34;;;;;;;4.07;3.70;;;18.20;95.50;;;;;;4940589;29;20040;-91
2021/09/19 06:11:00;;;;;;;5.13;4.18;;;18.20;95.70;;;;;;4958290;28;20486;-90
2021/09/19 06:13:25;;;;;;;4.93;3.65;;;18.20;95.60;;;;;;4942409;29;20134;-91
2021/09/19 06:15:51;;;;;;;6.18;4.55;;;18.20;95.50;;;;;;4939121;29;20032;-90
2021/09/19 06:18:17;;;;;;;4.80;4.40;;;18.20;95.40;;;;;;4939426;29;20032;-91
2021/09/19 06:20:43;;;;;;;5.05;4.53;;;18.20;94.60;;;;;;4939500;29;20610;-90
2021/09/19 06:23:09;;;;;;;5.45;4.60;;;18.00;94.40;;;;;;4940522;29;20078;-91
2021/09/19 06:25:35;;;;;;;6.00;5.40;;;18.00;94.30;;;;;;4944559;29;20047;-90
2021/09/19 06:28:01;;;;;;;6.85;6.20;;;17.90;94.50;;;;;;4961520;29;20114;-90
2021/09/19 06:30:27;;;;;;;7.47;5.95;;;17.80;94.60;;;;;;4944740;29;20059;-90
2021/09/19 06:32:53;;;;;;;6.20;5.60;;;17.80;94.80;;;;;;4943843;29;20055;-90
2021/09/19 06:35:19;;;;;;;6.68;5.45;;;17.70;94.60;;;;;;4961038;29;20031;-90
2021/09/19 06:37:45;;;;;;;5.32;4.80;;;17.70;94.40;;;;;;4961137;29;20058;-89
2021/09/19 06:40:12;;;;;;;4.53;4.07;;;17.60;94.60;;;;;;4943658;29;20083;-90
2021/09/19 06:42:38;;;;;;;4.55;4.15;;;17.50;94.80;;;;;;4943801;29;20099;-89
2021/09/19 06:45:05;;;;;;;4.68;4.03;;;17.50;95.20;;;;;;4962605;28;20080;-89
2021/09/19 06:47:30;;;;;;;3.95;3.50;;;17.60;95.00;;;;;;4948295;29;20039;-90
2021/09/19 06:49:56;;;;;;;4.88;4.38;;;17.70;94.80;;;;;;4948148;29;20534;-90
2021/09/19 06:52:22;;;;;;;4.85;4.28;;;17.70;94.40;;;;;;4965153;29;20067;-89
2021/09/19 06:54:48;;;;;;;3.72;3.42;;;17.80;94.40;;;;;;4948417;29;20103;-90
2021/09/19 06:57:13;;;;;;;4.60;4.18;;;17.80;94.40;;;;;;4950557;29;20031;-90
2021/09/19 06:59:42;;;;;;;4.20;3.80;;;17.90;94.20;;;;;;4960087;29;20035;-90
2021/09/19 07:02:08;;;;;;;4.75;4.15;;;18.00;94.30;;;;;;4976311;29;20063;-90
2021/09/19 07:04:33;;;;;;;5.97;5.10;;;18.20;94.10;;;;;;4955748;29;20067;-91
2021/09/19 07:07:02;;;;;;;5.75;4.60;;;18.30;93.60;;;;;;4948586;29;20035;-90
2021/09/19 07:09:28;;;;;;;6.28;5.68;;;18.30;93.60;;;;;;4965150;29;20032;-90
2021/09/19 07:11:53;;;;;;;7.07;6.32;;;18.40;93.50;;;;;;4949779;29;20063;-93
2021/09/19 07:14:19;;;;;;;6.32;5.72;;;18.50;93.40;;;;;;4952430;29;20039;-90
2021/09/19 07:16:45;;;;;;;6.45;5.53;;;18.50;93.30;;;;;;4948911;29;20042;-90
2021/09/19 07:19:10;;;;;;;5.82;5.18;;;18.70;93.10;;;;;;4947992;29;20123;-89
2021/09/19 07:21:36;;;;;;;6.32;5.72;;;18.80;92.90;;;;;;4947624;29;20463;-90
2021/09/19 07:24:02;;;;;;;6.78;6.18;;;19.10;92.70;;;;;;4948330;29;20098;-90
2021/09/19 07:26:28;;;;;;;6.30;5.70;;;19.20;92.30;;;;;;4964930;29;20189;-90
2021/09/19 07:28:54;;;;;;;6.78;6.00;;;19.40;92.10;;;;;;4964695;29;20035;-91
2021/09/19 07:31:20;;;;;;;6.22;5.63;;;19.50;91.60;;;;;;4947773;29;20090;-90
2021/09/19 07:33:46;;;;;;;5.75;5.22;;;19.50;91.30;;;;;;4948533;29;20035;-90
2021/09/19 07:36:12;;;;;;;9.90;5.63;;;19.40;90.80;;;;;;4965217;29;20091;-90
2021/09/19 07:38:37;;;;;;;6.25;5.65;;;19.30;90.80;;;;;;4947043;29;20130;-90
2021/09/19 07:41:05;;;;;;;6.00;5.50;;;19.20;91.10;;;;;;4965929;29;20094;-90
2021/09/19 07:43:30;;;;;;;6.80;6.10;;;19.20;91.30;;;;;;4955509;29;20047;-91
2021/09/19 07:45:56;;;;;;;6.07;5.47;;;19.20;91.20;;;;;;4952456;29;20062;-91
2021/09/19 07:48:23;;;;;;;6.53;5.93;;;19.20;91.40;;;;;;4948957;29;20067;-91
2021/09/19 07:50:49;;;;;;;4.97;4.47;;;19.40;91.20;;;;;;4959217;29;20511;-91
2021/09/19 07:53:15;;;;;;;4.88;4.45;;;19.50;91.30;;;;;;4941481;29;20043;-92
2021/09/19 07:55:41;;;;;;;5.47;4.97;;;19.70;90.90;;;;;;4942115;29;20036;-91
2021/09/19 07:58:07;;;;;;;5.38;4.88;;;19.80;90.30;;;;;;4943894;29;20526;-92
2021/09/19 08:00:32;;;;;;;5.80;5.30;;;19.90;90.20;;;;;;4947616;29;20058;-91
2021/09/19 08:03:02;;;;;;;5.75;5.25;;;19.80;90.20;;;;;;4948260;29;20039;-91
2021/09/19 08:05:27;;;;;;;5.38;4.80;;;20.00;90.50;;;;;;4950392;29;20058;-92
2021/09/19 08:07:53;;;;;;;5.35;4.40;;;20.20;90.20;;;;;;4949450;29;20479;-90
2021/09/19 08:10:20;;;;;;;4.63;4.22;;;20.30;89.80;;;;;;4963295;29;20042;-92
2021/09/19 08:12:49;;;;;;;4.28;3.88;;;20.60;88.90;;;;;;4947001;29;20134;-91
2021/09/19 08:15:16;;;;;;;4.10;3.70;;;20.80;87.00;;;;;;4951383;28;20051;-91
2021/09/19 08:17:43;;;;;;;4.43;4.00;;;20.80;86.00;;;;;;4985942;28;20041;-91
2021/09/19 08:20:15;;;;;;;5.97;3.78;;;20.70;85.50;;;;;;4965094;28;20039;-92
2021/09/19 08:22:41;;;;;;;4.30;3.90;;;20.60;84.10;;;;;;4965602;28;20050;-91
2021/09/19 08:25:08;;;;;;;4.20;3.80;;;20.50;82.90;;;;;;4966275;28;20145;-91
2021/09/19 08:27:36;;;;;;;4.22;3.83;;;20.40;81.60;;;;;;4982736;28;20565;-91
2021/09/19 08:30:07;;;;;;;4.15;3.75;;;20.30;80.80;;;;;;4964926;28;20109;-91
2021/09/19 08:32:33;;;;;;;4.20;3.80;;;20.10;81.30;;;;;;4965071;28;20039;-90
2021/09/19 08:34:58;;;;;;;3.83;3.53;;;20.00;81.90;;;;;;4965164;28;20509;-90
2021/09/19 08:37:24;;;;;;;4.97;4.15;;;19.90;81.90;;;;;;4964347;28;20125;-90
2021/09/19 08:39:50;;;;;;;4.82;4.15;;;19.80;82.30;;;;;;4965150;28;20343;-91
2021/09/19 08:42:16;;;;;;;3.75;3.45;;;19.70;82.70;;;;;;4964465;28;20035;-91
2021/09/19 08:44:42;;;;;;;4.10;3.70;;;19.50;83.30;;;;;;4962000;28;20046;-91
2021/09/19 08:47:10;;;;;;;3.85;3.53;;;19.50;84.00;;;;;;4963620;28;20053;-91
2021/09/19 08:49:36;;;;;;;4.80;4.30;;;19.50;84.50;;;;;;4961881;28;20031;-91
2021/09/19 08:52:02;;;;;;;4.28;3.88;;;19.50;84.50;;;;;;4961592;28;20042;-90
2021/09/19 08:54:28;;;;;;;4.22;3.85;;;19.60;85.00;;;;;;4958802;28;20042;-91
2021/09/19 08:56:54;;;;;;;4.20;3.80;;;19.70;84.70;;;;;;4961069;28;20097;-90
2021/09/19 08:59:20;;;;;;;3.78;3.47;;;19.90;84.70;;;;;;4960739;28;20123;-91
2021/09/19 09:02:02;;;;;;;3.60;3.30;;;20.00;84.10;;;;;;4958420;28;20557;-91
2021/09/19 09:04:28;;;;;;;4.47;3.60;;;20.20;83.80;;;;;;4961823;28;20043;-90
2021/09/19 09:06:55;;;;;;;3.50;3.20;;;20.40;83.50;;;;;;4959441;28;20094;-90
2021/09/19 09:09:21;;;;;;;3.58;3.10;;;20.60;82.90;;;;;;4960365;28;20073;-90
2021/09/19 09:12:08;;;;;;;3.58;3.28;;;20.70;81.40;;;;;;4961075;28;20114;-90
2021/09/19 09:14:48;;;;;;;3.83;3.50;;;20.90;81.20;;;;;;4960437;28;20043;-90
2021/09/19 09:17:17;;;;;;;3.47;2.97;;;21.10;81.40;;;;;;4959894;28;20039;-90
2021/09/19 09:19:46;;;;;;;4.30;3.08;;;21.40;80.70;;;;;;4959841;28;20471;-90
2021/09/19 09:22:12;;;;;;;3.13;2.83;;;21.60;79.70;;;;;;4959136;28;20042;-90
2021/09/19 09:24:40;;;;;;;3.47;3.17;;;21.70;78.10;;;;;;4960025;28;20378;-90
2021/09/19 09:27:23;;;;;;;4.35;3.88;;;21.60;77.40;;;;;;4959543;28;20041;-89
2021/09/19 09:30:16;;;;;;;5.85;3.65;;;21.50;77.20;;;;;;4960271;28;20038;-91
2021/09/19 09:32:54;;;;;;;3.55;3.25;;;21.40;77.60;;;;;;4978245;28;20038;-91
2021/09/19 09:35:20;;;;;;;3.83;3.40;;;21.30;77.50;;;;;;4978942;28;20035;-90
2021/09/19 09:37:46;;;;;;;4.85;3.38;;;21.20;77.60;;;;;;4963146;28;20398;-91
2021/09/19 09:40:31;;;;;;;3.70;3.40;;;21.20;77.90;;;;;;4960774;28;20030;-90
2021/09/19 09:43:01;;;;;;;5.43;3.53;;;21.20;77.00;;;;;;4959423;28;20039;-91
2021/09/19 09:45:27;;;;;;;3.42;3.13;;;21.20;77.10;;;;;;4976438;28;20046;-91
2021/09/19 09:47:53;;;;;;;3.42;3.13;;;21.20;76.80;;;;;;4957873;28;20038;-90
2021/09/19 09:50:25;;;;;;;3.50;3.20;;;21.30;77.30;;;;;;4958887;28;20457;-91
2021/09/19 09:52:52;;;;;;;3.15;2.88;;;21.40;77.40;;;;;;4975767;28;20538;-90
2021/09/19 09:55:21;;;;;;;4.30;3.75;;;21.50;78.00;;;;;;4958611;28;20054;-90
2021/09/19 09:58:09;;;;;;;3.97;3.63;;;21.70;75.30;;;;;;4958195;28;20038;-90
2021/09/19 10:00:36;;;;;;;4.57;4.15;;;21.70;73.30;;;;;;4959036;28;20046;-90
2021/09/19 10:03:02;;;;;;;3.75;3.30;;;21.60;74.40;;;;;;4958459;28;20057;-90
2021/09/19 10:05:29;;;;;;;5.97;3.35;;;21.60;75.10;;;;;;4975462;28;20035;-90
2021/09/19 10:07:55;;;;;;;3.28;2.97;;;21.60;74.00;;;;;;4958351;28;20042;-91
2021/09/19 10:10:24;;;;;;;3.30;2.83;;;21.60;74.70;;;;;;4958127;28;20426;-91
2021/09/19 10:12:51;;;;;;;2.95;2.65;;;21.80;73.30;;;;;;4958323;28;20054;-92
2021/09/19 10:15:18;;;;;;;3.25;2.95;;;22.00;72.30;;;;;;4958460;28;20035;-91
2021/09/19 10:17:44;;;;;;;2.33;2.13;;;22.20;71.90;;;;;;4958911;28;20390;-92
2021/09/19 10:20:17;;;;;;;2.83;2.53;;;22.30;71.70;;;;;;4958270;28;20451;-91
2021/09/19 10:22:55;;;;;;;2.72;2.33;;;22.40;69.50;;;;;;4957910;28;20509;-90
2021/09/19 10:25:30;;;;;;;2.35;2.15;;;22.40;68.20;;;;;;4957820;28;20070;-91
2021/09/19 10:28:19;;;;;;;6.32;2.50;;;22.50;68.70;;;;;;4958573;28;20035;-91
2021/09/19 10:31:09;;;;;;;2.70;2.10;;;22.50;64.70;;;;;;4975806;28;20046;-91
2021/09/19 10:33:39;;;;;;;2.17;2.08;;;22.50;67.40;;;;;;4958105;28;20049;-91
2021/09/19 10:36:13;;;;;;;2.58;2.25;;;22.60;66.40;;;;;;4958043;28;20042;-90
2021/09/19 10:38:42;;;;;;;1.92;1.83;;;22.60;65.60;;;;;;4958117;28;20054;-91
2021/09/19 10:41:15;;;;;;;2.08;1.88;;;22.50;65.60;;;;;;4957805;28;20039;-91
2021/09/19 10:43:52;;;;;;;2.05;1.95;;;22.40;63.80;;;;;;4957974;28;20047;-90
2021/09/19 10:46:36;;;;;;;1.90;1.80;;;22.20;64.20;;;;;;4957820;28;20035;-91
2021/09/19 10:49:17;;;;;;;4.22;2.10;;;22.10;65.50;;;;;;4957858;28;20470;-91
2021/09/19 10:52:01;;;;;;;2.80;2.53;;;21.90;64.60;;;;;;4957848;28;20063;-90
2021/09/19 10:54:49;;;;;;;2.20;2.00;;;21.90;66.50;;;;;;4957572;28;20097;-91
2021/09/19 10:57:34;;;;;;;2.15;2.00;;;21.90;66.80;;;;;;4958141;28;20071;-91
2021/09/19 11:00:17;;;;;;;2.70;2.47;;;21.80;66.60;;;;;;4954519;28;20074;-91
2021/09/19 11:02:59;;;;;;;2.15;1.95;;;21.80;66.30;;;;;;4939194;29;20075;-90
2021/09/19 11:05:26;;;;;;;2.17;1.90;;;21.90;67.90;;;;;;4943897;28;20035;-90
2021/09/19 11:08:09;;;;;;;2.25;2.08;;;22.00;67.90;;;;;;4956833;28;20090;-90
2021/09/19 11:10:45;;;;;;;2.58;2.38;;;22.10;65.60;;;;;;4948268;28;20086;-90
2021/09/19 11:13:29;;;;;;;2.30;2.10;;;22.10;66.00;;;;;;4947588;28;20037;-89
2021/09/19 11:16:04;;;;;;;2.20;2.00;;;22.20;65.90;;;;;;4952430;28;20034;-91
2021/09/19 11:18:33;;;;;;;2.38;2.17;;;22.30;65.20;;;;;;4957708;28;20082;-90
2021/09/19 11:21:11;;;;;;;2.22;2.08;;;22.20;65.30;;;;;;4950239;29;20039;-92
2021/09/19 11:23:45;;;;;;;2.50;2.30;;;22.10;64.40;;;;;;4938226;28;20118;-92
2021/09/19 11:26:14;;;;;;;2.55;2.35;;;21.90;65.20;;;;;;4913453;29;20035;-93
2021/09/19 11:28:44;;;;;;;2.30;2.10;;;21.70;65.40;;;;;;4919680;29;20037;-96
2021/09/19 11:31:11;;;;;;;2.38;2.15;;;21.60;66.10;;;;;;4934894;29;20078;-92
2021/09/19 11:33:38;;;;;;;2.00;1.90;;;21.60;66.40;;;;;;4944110;29;20081;-96
2021/09/19 11:36:17;;;;;;;2.35;2.15;;;21.60;66.00;;;;;;4927084;29;20050;-92
2021/09/19 11:39:03;;;;;;;3.50;2.30;;;21.70;65.50;;;;;;4935620;29;20035;-96
2021/09/19 11:41:36;;;;;;;2.45;2.25;;;21.80;65.30;;;;;;4935268;29;20590;-96
2021/09/19 11:44:43;;;;;;;2.40;2.20;;;21.90;64.10;;;;;;5169396;23;20066;-96
2021/09/19 11:47:28;;;;;;;2.53;2.33;;;21.90;62.60;;;;;;4965871;28;20051;-96
2021/09/19 11:49:54;;;;;;;1.92;1.83;;;21.80;64.20;;;;;;4967651;28;20063;-95
2021/09/19 11:52:36;;;;;;;2.40;2.20;;;21.80;64.80;;;;;;4973192;28;20034;-96
2021/09/19 11:55:02;;;;;;;2.13;1.92;;;21.90;64.00;;;;;;4965001;28;20047;-94
2021/09/19 12:04:50;;;;;;;1.75;1.65;;;22.10;62.60;;;;;;5091665;23;20464;-96
2021/09/19 12:07:30;;;;;;;;;;;;;;;;;;;;;
2021/09/19 12:09:59;;;;;;;2.17;1.85;;;22.10;62.50;;;;;;4966833;28;20133;-95
2021/09/19 12:12:25;;;;;;;1.77;1.67;;;22.00;62.80;;;;;;4957168;28;20042;-96
2021/09/19 12:14:54;;;;;;;2.47;1.85;;;22.00;63.30;;;;;;4964585;28;20050;-94
2021/09/19 12:17:27;;;;;;;2.00;1.88;;;22.10;63.60;;;;;;4955990;28;20035;-95
2021/09/19 12:20:12;;;;;;;1.88;1.50;;;22.10;63.10;;;;;;4959308;28;20081;-95
2021/09/19 12:22:38;;;;;;;2.20;1.63;;;22.10;63.30;;;;;;4958912;28;20047;-93
2021/09/19 12:25:08;;;;;;;1.75;1.63;;;22.10;63.80;;;;;;4966696;28;20030;-95
2021/09/19 12:28:28;;;;;;;2.25;1.83;;;22.00;64.00;;;;;;4966392;28;20043;-95
2021/09/19 12:30:56;;;;;;;1.60;1.50;;;22.00;64.30;;;;;;4964150;28;20039;-94
2021/09/19 12:33:23;;;;;;;1.95;1.85;;;21.90;64.40;;;;;;4961989;28;20454;-96
2021/09/19 12:35:52;;;;;;;1.38;1.30;;;21.90;64.60;;;;;;4948523;28;20038;-93
2021/09/19 12:38:41;;;;;;;1.83;1.70;;;21.80;64.90;;;;;;4961609;28;20054;-96
2021/09/19 12:41:31;;;;;;;2.38;2.00;;;21.70;65.20;;;;;;4987742;28;20043;-95
2021/09/19 12:43:58;;;;;;;1.95;1.80;;;21.60;65.60;;;;;;4962521;28;20118;-95
2021/09/19 12:46:27;;;;;;;2.30;2.10;;;21.50;65.60;;;;;;4963062;28;20038;-95
2021/09/19 12:49:07;;;;;;;2.00;1.90;;;21.50;65.90;;;;;;4959439;28;20031;-94
2021/09/19 12:51:41;;;;;;;2.10;1.90;;;21.50;66.50;;;;;;4945899;28;20086;-95
2021/09/19 12:54:23;;;;;;;2.15;1.98;;;21.50;66.60;;;;;;4930920;28;20515;-93
2021/09/19 13:00:30;;;;;;;1.42;1.33;;;21.70;68.40;;;;;;4921284;28;20066;-95
2021/09/19 13:03:06;;;;;;;1.50;1.40;;;22.00;68.60;;;;;;4954079;28;20391;-96
2021/09/19 13:05:56;;;;;;;1.90;1.80;;;22.40;68.50;;;;;;4948181;28;20042;-94
2021/09/19 13:08:28;;;;;;;1.90;1.80;;;22.70;66.40;;;;;;4943096;28;20030;-94
2021/09/19 13:10:56;;;;;;;2.05;1.70;;;23.00;66.70;;;;;;4941902;28;20038;-95
2021/09/19 13:14:02;;;;;;;;;;;;;;;;;;;;;
2021/09/19 13:16:55;;;;;;;;;;;;;;;;;;;;;
2021/09/19 15:08:17;;;;;;;1.70;1.20;;;13.60;99.90;;;;;;4928104;29;20093;-95
2021/09/19 15:10:48;;;;;;;2.30;1.52;;;13.70;99.90;;;;;;4915279;29;20051;-96
2021/09/19 15:13:19;;;;;;;3.38;2.22;;;13.70;99.90;;;;;;4912628;29;20043;-96
2021/09/19 15:15:48;;;;;;;4.03;2.17;;;13.80;99.90;;;;;;4912270;29;20076;-94
2021/09/19 15:18:15;;;;;;;2.50;2.25;;;13.80;99.90;;;;;;4923214;29;20452;-90
2021/09/19 15:20:44;;;;;;;1.95;1.50;;;13.80;99.90;;;;;;4922563;29;20063;-92
2021/09/19 15:23:14;;;;;;;2.00;1.70;;;13.80;99.90;;;;;;4924114;29;20123;-86
2021/09/19 15:25:48;;;;;;;2.50;1.95;;;13.80;99.90;;;;;;4932796;29;20059;-94
2021/09/19 15:28:14;;;;;;;2.28;1.73;;;13.80;99.90;;;;;;4913482;29;20040;-92
2021/09/19 15:30:58;;;;;;;2.53;1.75;;;13.80;99.90;;;;;;4913594;29;20046;-92
2021/09/19 15:33:24;;;;;;;2.35;1.40;;;13.80;99.90;;;;;;4928210;29;20068;-91
2021/09/19 15:35:53;;;;;;;3.90;1.90;;;13.70;99.90;;;;;;4930081;29;20032;-92
2021/09/19 15:38:22;;;;;;;2.35;1.63;;;13.70;99.90;;;;;;4929015;29;20040;-91
2021/09/19 15:40:57;;;;;;;2.00;1.23;;;13.80;99.90;;;;;;4928086;29;20043;-91
2021/09/19 15:43:29;;;;;;;2.00;1.48;;;13.70;99.90;;;;;;4934142;29;20060;-92
2021/09/19 15:46:01;;;;;;;3.60;1.45;;;13.70;99.90;;;;;;4937914;29;20040;-93
2021/09/19 15:48:28;;;;;;;3.00;1.50;;;13.70;99.90;;;;;;4939846;29;20032;-92
2021/09/19 15:50:59;;;;;;;2.38;1.63;;;13.70;99.90;;;;;;4935066;29;20483;-91
2021/09/19 15:53:31;;;;;;;2.25;1.40;;;13.70;99.90;;;;;;4933069;29;20039;-92
2021/09/19 15:55:59;;;;;;;2.72;1.73;;;13.70;99.90;;;;;;4926497;29;20032;-93
2021/09/19 15:58:27;;;;;;;3.08;1.45;;;13.70;99.90;;;;;;4923184;29;20076;-92
2021/09/19 16:00:54;;;;;;;1.30;1.15;;;13.70;99.90;;;;;;4923724;29;20180;-93
2021/09/19 16:03:20;;;;;;;1.13;0.90;;;13.70;99.90;;;;;;4924251;29;20059;-92
2021/09/19 16:05:51;;;;;;;1.35;1.02;;;13.70;99.90;;;;;;4948087;29;20082;-92
2021/09/19 16:08:18;;;;;;;1.40;1.30;;;13.60;99.90;;;;;;4958130;29;20091;-93
2021/09/19 16:10:46;;;;;;;2.78;1.42;;;13.60;99.90;;;;;;4959786;29;20157;-92
2021/09/19 16:13:15;;;;;;;1.48;1.10;;;13.50;99.90;;;;;;4957936;29;20036;-92
2021/09/19 16:15:41;;;;;;;1.30;1.20;;;13.50;99.90;;;;;;4958478;29;20046;-92
2021/09/19 16:18:07;;;;;;;3.30;1.55;;;13.50;99.90;;;;;;4957978;28;20435;-92
2021/09/19 16:20:34;;;;;;;1.63;1.02;;;13.40;99.90;;;;;;4958785;28;20038;-92
2021/09/19 16:23:02;;;;;;;4.03;1.42;;;13.40;99.90;;;;;;4958491;29;20546;-92